Time;durP1;ratioP1;P1;durP2;ratioP2;P2;SDS_P1;SDS_P2;PMS_P1;PMS_P2;Temp;Humidity;BMP_temperature;BMP_pressure;BME280_temperature;BME280_humidity;BME280_pressure;Samples;Min_cycle;Max_cycle;Signal;HPM_P1;HPM_P2
2023/07/06 00:01:48;;;;;;;9.47;4.93;;;20.30;99.90;;;;;;5034314;28;20214;-80
2023/07/06 00:04:15;;;;;;;7.70;4.70;;;20.30;99.90;;;;;;5051737;28;20214;-80
2023/07/06 00:06:43;;;;;;;6.93;4.53;;;20.30;99.90;;;;;;5050339;28;20219;-79
2023/07/06 00:09:10;;;;;;;6.60;4.80;;;20.20;99.90;;;;;;5050469;28;20195;-80
2023/07/06 00:11:39;;;;;;;8.80;5.07;;;20.30;99.90;;;;;;5051849;28;20215;-80
2023/07/06 00:14:09;;;;;;;9.43;5.00;;;20.20;99.90;;;;;;5050329;28;20217;-80
2023/07/06 00:16:41;;;;;;;7.87;4.80;;;20.20;99.90;;;;;;5051659;28;20217;-80
2023/07/06 00:19:08;;;;;;;7.77;4.30;;;20.20;99.90;;;;;;5034248;28;20187;-80
2023/07/06 00:21:36;;;;;;;8.53;4.30;;;20.30;99.90;;;;;;5050307;28;20245;-80
2023/07/06 00:24:03;;;;;;;6.93;4.47;;;20.30;99.90;;;;;;5034210;28;20191;-80
2023/07/06 00:26:30;;;;;;;7.07;4.30;;;20.30;99.90;;;;;;5054262;28;20759;-80
2023/07/06 00:28:58;;;;;;;5.00;3.80;;;20.20;99.90;;;;;;5054289;28;20595;-80
2023/07/06 00:31:50;;;;;;;6.50;4.03;;;20.20;99.90;;;;;;5053911;28;20229;-80
2023/07/06 00:34:19;;;;;;;7.93;4.10;;;20.20;99.90;;;;;;5053858;28;20234;-80
2023/07/06 00:36:47;;;;;;;6.10;3.93;;;20.10;99.90;;;;;;5055000;28;20212;-80
2023/07/06 00:39:14;;;;;;;5.90;4.23;;;20.00;99.90;;;;;;5037376;28;20188;-80
2023/07/06 00:41:43;;;;;;;5.97;3.70;;;20.00;99.90;;;;;;5053953;28;20255;-80
2023/07/06 00:44:48;;;;;;;7.27;4.17;;;20.00;99.90;;;;;;5053831;28;20221;-80
2023/07/06 00:47:17;;;;;;;6.53;4.03;;;20.00;99.90;;;;;;5054649;28;20218;-79
2023/07/06 00:49:45;;;;;;;7.23;4.23;;;19.90;99.90;;;;;;5053509;28;20732;-80
2023/07/06 00:52:13;;;;;;;9.47;4.10;;;20.00;99.90;;;;;;5054857;28;20230;-80
2023/07/06 00:54:42;;;;;;;7.47;4.23;;;20.00;99.90;;;;;;5053660;28;20211;-79
2023/07/06 00:57:11;;;;;;;6.40;3.90;;;19.90;99.90;;;;;;5053643;28;20221;-79
2023/07/06 00:59:40;;;;;;;6.03;3.77;;;19.80;99.90;;;;;;5053431;28;20194;-80
2023/07/06 01:02:11;;;;;;;6.07;3.90;;;19.70;99.90;;;;;;5053609;28;20223;-80
2023/07/06 01:04:39;;;;;;;6.00;4.17;;;19.80;99.90;;;;;;5054664;28;20202;-80
2023/07/06 01:07:07;;;;;;;6.80;3.73;;;19.70;99.90;;;;;;5053359;28;20242;-80
2023/07/06 01:09:34;;;;;;;6.37;3.83;;;19.60;99.90;;;;;;5053365;28;20187;-81
2023/07/06 01:12:02;;;;;;;8.97;4.27;;;19.70;99.90;;;;;;5036712;28;20265;-80
2023/07/06 01:14:31;;;;;;;4.80;3.73;;;19.80;99.90;;;;;;5054314;28;20223;-80
2023/07/06 01:17:07;;;;;;;6.20;3.60;;;19.70;99.90;;;;;;5036763;28;20261;-80
2023/07/06 01:19:57;;;;;;;7.00;4.10;;;19.80;99.90;;;;;;5036667;28;20704;-79
2023/07/06 01:23:02;;;;;;;5.83;3.73;;;19.80;99.90;;;;;;5052787;28;20226;-80
2023/07/06 01:26:01;;;;;;;7.60;3.90;;;19.80;99.90;;;;;;5036252;28;20248;-80
2023/07/06 01:29:05;;;;;;;6.97;3.80;;;19.80;99.90;;;;;;5053938;28;20187;-80
2023/07/06 01:31:42;;;;;;;5.77;3.70;;;19.80;99.90;;;;;;5036046;28;20313;-81
2023/07/06 01:34:25;;;;;;;6.37;3.90;;;19.80;99.90;;;;;;5036058;28;20651;-80
2023/07/06 01:36:59;;;;;;;6.80;4.00;;;19.70;99.90;;;;;;5035538;28;20214;-80
2023/07/06 01:39:27;;;;;;;7.80;3.73;;;19.70;99.90;;;;;;5053776;28;20179;-81
2023/07/06 01:42:25;;;;;;;7.90;4.37;;;19.60;99.90;;;;;;5052392;28;20218;-80
2023/07/06 01:44:56;;;;;;;6.70;3.87;;;19.60;99.90;;;;;;5037205;28;20187;-81
2023/07/06 01:47:26;;;;;;;6.97;4.40;;;19.60;99.90;;;;;;5052332;28;20227;-80
2023/07/06 01:49:53;;;;;;;7.73;3.90;;;19.60;99.90;;;;;;5052220;28;20297;-79
2023/07/06 01:52:25;;;;;;;6.30;4.17;;;19.60;99.90;;;;;;5052241;28;20272;-79
2023/07/06 01:55:02;;;;;;;8.93;4.37;;;19.60;99.90;;;;;;5053662;28;20297;-80
2023/07/06 01:57:40;;;;;;;7.23;4.40;;;19.60;99.90;;;;;;5053380;28;20193;-81
2023/07/06 02:00:29;;;;;;;5.70;3.93;;;19.50;99.90;;;;;;5038297;28;20226;-80
2023/07/06 02:02:57;;;;;;;8.10;4.10;;;19.40;99.90;;;;;;5052081;28;20195;-79
2023/07/06 02:05:26;;;;;;;7.20;4.00;;;19.40;99.90;;;;;;5035390;28;20225;-81
2023/07/06 02:07:54;;;;;;;6.83;3.90;;;19.40;99.90;;;;;;5051852;28;20192;-80
2023/07/06 02:10:22;;;;;;;6.67;3.73;;;19.40;99.90;;;;;;5052034;28;20679;-79
2023/07/06 02:12:49;;;;;;;6.40;3.83;;;19.40;99.90;;;;;;5053354;28;20199;-79
2023/07/06 02:15:19;;;;;;;7.40;4.23;;;19.20;99.90;;;;;;5052985;28;20261;-80
2023/07/06 02:17:47;;;;;;;6.37;4.23;;;19.20;99.90;;;;;;5053410;28;20549;-80
2023/07/06 02:20:16;;;;;;;5.53;4.10;;;19.20;99.90;;;;;;5051564;28;20219;-80
2023/07/06 02:22:44;;;;;;;5.83;4.07;;;19.10;99.90;;;;;;5035054;28;20616;-79
2023/07/06 02:25:12;;;;;;;8.30;4.60;;;19.10;99.90;;;;;;5051485;28;20202;-80
2023/07/06 02:27:39;;;;;;;9.37;4.90;;;19.10;99.90;;;;;;5051898;28;20195;-79
2023/07/06 02:30:07;;;;;;;6.63;4.33;;;19.00;99.90;;;;;;5052761;28;20234;-80
2023/07/06 02:32:35;;;;;;;6.13;4.17;;;19.10;99.90;;;;;;5035183;28;20210;-80
2023/07/06 02:35:05;;;;;;;7.03;4.20;;;19.10;99.90;;;;;;5035096;28;20218;-78
2023/07/06 02:37:32;;;;;;;6.47;4.20;;;19.10;99.90;;;;;;5051294;28;20231;-80
2023/07/06 02:39:58;;;;;;;6.23;4.43;;;19.00;99.90;;;;;;5051258;28;20199;-79
2023/07/06 02:42:26;;;;;;;5.53;3.80;;;19.00;99.90;;;;;;5052644;28;20654;-79
2023/07/06 02:44:57;;;;;;;6.73;4.10;;;18.90;99.90;;;;;;5051371;28;20709;-79
2023/07/06 02:47:26;;;;;;;5.93;4.07;;;18.90;99.90;;;;;;5050476;28;20230;-79
2023/07/06 02:49:53;;;;;;;7.73;4.30;;;18.90;99.90;;;;;;5051466;28;20226;-79
2023/07/06 02:52:20;;;;;;;7.23;4.30;;;19.00;99.90;;;;;;5034649;28;20250;-80
2023/07/06 02:54:47;;;;;;;7.50;4.20;;;18.90;99.90;;;;;;5052351;28;20701;-80
2023/07/06 02:57:14;;;;;;;7.30;4.60;;;19.00;99.90;;;;;;5050914;28;20230;-79
2023/07/06 02:59:41;;;;;;;6.97;4.17;;;19.00;99.90;;;;;;5051304;28;20291;-79
2023/07/06 03:02:08;;;;;;;9.57;3.87;;;19.00;99.90;;;;;;5034475;28;20219;-80
2023/07/06 03:04:36;;;;;;;8.23;4.03;;;18.90;99.90;;;;;;5034800;28;20335;-80
2023/07/06 03:07:04;;;;;;;7.00;4.30;;;18.90;99.90;;;;;;5051027;28;20712;-79
2023/07/06 03:09:31;;;;;;;7.30;4.70;;;18.90;99.90;;;;;;5050919;28;20191;-80
2023/07/06 03:11:57;;;;;;;7.90;4.37;;;18.90;99.90;;;;;;5051213;28;20264;-80
2023/07/06 03:14:25;;;;;;;6.67;4.10;;;18.90;99.90;;;;;;5050928;28;20219;-80
2023/07/06 03:16:53;;;;;;;7.07;3.90;;;19.00;99.90;;;;;;5050888;28;20703;-79
2023/07/06 03:19:21;;;;;;;5.27;3.60;;;19.00;99.90;;;;;;5034383;28;20712;-80
2023/07/06 03:21:48;;;;;;;7.40;4.20;;;19.00;99.90;;;;;;5051029;28;20239;-79
2023/07/06 03:24:16;;;;;;;8.30;4.73;;;19.00;99.90;;;;;;5052170;28;20225;-79
2023/07/06 03:26:44;;;;;;;8.53;3.97;;;18.90;99.90;;;;;;5034404;28;20709;-79
2023/07/06 03:29:14;;;;;;;6.80;3.83;;;19.00;99.90;;;;;;5051933;28;20678;-79
2023/07/06 03:31:42;;;;;;;5.97;4.10;;;19.00;99.90;;;;;;5051892;28;20298;-79
2023/07/06 03:34:10;;;;;;;5.57;3.90;;;19.00;99.90;;;;;;5050710;28;20720;-79
2023/07/06 03:36:38;;;;;;;7.83;4.33;;;19.00;99.90;;;;;;5050897;28;20210;-79
2023/07/06 03:39:06;;;;;;;6.13;4.23;;;19.00;99.90;;;;;;5051876;28;20237;-79
2023/07/06 03:41:33;;;;;;;7.13;4.50;;;18.80;99.90;;;;;;5034280;28;20219;-78
2023/07/06 03:44:00;;;;;;;7.47;4.50;;;18.80;99.90;;;;;;5034130;28;20198;-78
2023/07/06 03:46:33;;;;;;;6.77;4.53;;;18.80;99.90;;;;;;5050573;28;20215;-80
2023/07/06 03:49:03;;;;;;;6.90;4.40;;;18.90;99.90;;;;;;5052158;28;20542;-80
2023/07/06 03:51:31;;;;;;;9.87;4.60;;;18.90;99.90;;;;;;5050574;28;20258;-80
2023/07/06 03:53:58;;;;;;;7.07;4.80;;;18.90;99.90;;;;;;5050439;28;20260;-80
2023/07/06 03:56:28;;;;;;;6.57;4.50;;;18.80;99.90;;;;;;5050612;28;20765;-79
2023/07/06 03:58:59;;;;;;;9.03;5.20;;;18.70;99.90;;;;;;5052234;28;20179;-80
2023/07/06 04:01:28;;;;;;;9.77;5.00;;;18.80;99.90;;;;;;5055777;28;20212;-80
2023/07/06 04:03:55;;;;;;;6.97;4.63;;;18.80;99.90;;;;;;5054437;28;20197;-80
2023/07/06 04:06:25;;;;;;;8.17;5.00;;;18.80;99.90;;;;;;5054050;28;20678;-79
2023/07/06 04:08:53;;;;;;;8.07;5.20;;;18.80;99.90;;;;;;5038023;28;20199;-79
2023/07/06 04:11:20;;;;;;;5.43;4.33;;;18.90;99.90;;;;;;5037578;28;20227;-79
2023/07/06 04:13:48;;;;;;;6.97;5.07;;;18.90;99.90;;;;;;5055393;28;20189;-79
2023/07/06 04:16:16;;;;;;;8.70;4.83;;;18.90;99.90;;;;;;5055460;28;20219;-80
2023/07/06 04:18:45;;;;;;;9.07;5.57;;;19.00;99.90;;;;;;5055380;28;20550;-81
2023/07/06 04:21:19;;;;;;;9.83;5.60;;;18.80;99.90;;;;;;5053854;28;20227;-79
2023/07/06 04:23:47;;;;;;;6.97;5.20;;;18.80;99.90;;;;;;5055208;28;20176;-79
2023/07/06 04:26:16;;;;;;;8.07;5.67;;;18.80;99.90;;;;;;5054034;28;20227;-79
2023/07/06 04:28:44;;;;;;;8.10;5.17;;;18.90;99.90;;;;;;5053771;28;20198;-80
2023/07/06 04:31:13;;;;;;;10.53;5.63;;;19.00;99.90;;;;;;5053622;28;20233;-80
2023/07/06 04:33:41;;;;;;;10.73;5.73;;;19.00;99.90;;;;;;5037403;28;20199;-79
2023/07/06 04:36:09;;;;;;;8.00;5.47;;;19.10;99.90;;;;;;5053600;28;20449;-80
2023/07/06 04:38:36;;;;;;;11.47;6.00;;;19.20;99.90;;;;;;5053721;28;20197;-79
2023/07/06 04:41:04;;;;;;;8.70;5.47;;;19.00;99.90;;;;;;5053614;28;20218;-81
2023/07/06 04:43:31;;;;;;;9.43;5.87;;;19.10;99.90;;;;;;5053575;28;20195;-80
2023/07/06 04:45:58;;;;;;;11.67;6.17;;;19.00;99.90;;;;;;5054978;28;20692;-81
2023/07/06 04:48:26;;;;;;;14.97;5.50;;;19.00;99.90;;;;;;5054581;28;20309;-80
2023/07/06 04:50:54;;;;;;;9.70;5.83;;;19.10;99.90;;;;;;5053319;28;20218;-80
2023/07/06 04:53:22;;;;;;;9.70;6.13;;;19.00;99.90;;;;;;5053546;28;20202;-80
2023/07/06 04:55:50;;;;;;;11.97;5.97;;;19.10;99.90;;;;;;5053161;28;20230;-80
2023/07/06 04:58:18;;;;;;;10.30;5.60;;;19.20;99.90;;;;;;5054885;28;20233;-81
2023/07/06 05:00:45;;;;;;;10.33;5.83;;;19.20;99.90;;;;;;5054778;28;20310;-80
2023/07/06 05:03:13;;;;;;;9.77;5.70;;;19.20;99.90;;;;;;5053150;28;20244;-80
2023/07/06 05:05:45;;;;;;;9.23;5.63;;;19.30;99.90;;;;;;5053338;28;20234;-80
2023/07/06 05:08:19;;;;;;;12.17;5.33;;;19.30;99.90;;;;;;5036700;28;20261;-81
2023/07/06 05:10:51;;;;;;;11.03;5.90;;;19.40;99.90;;;;;;5053482;28;20226;-80
2023/07/06 05:13:20;;;;;;;11.93;6.07;;;19.50;99.90;;;;;;5036429;28;20209;-79
2023/07/06 05:15:48;;;;;;;10.73;6.30;;;19.50;99.90;;;;;;5052911;28;20236;-79
2023/07/06 05:18:19;;;;;;;12.27;5.87;;;19.30;99.90;;;;;;5054509;28;20270;-81
2023/07/06 05:20:49;;;;;;;10.90;6.07;;;19.40;99.90;;;;;;5052828;28;20218;-80
2023/07/06 05:23:22;;;;;;;10.03;6.00;;;19.40;99.90;;;;;;5054014;28;20182;-82
2023/07/06 05:25:53;;;;;;;9.93;5.90;;;19.40;99.90;;;;;;5052571;28;20210;-80
2023/07/06 05:28:21;;;;;;;11.50;6.30;;;19.40;99.90;;;;;;5052861;28;20202;-82
2023/07/06 05:30:49;;;;;;;12.37;6.90;;;19.40;99.90;;;;;;5052676;28;20616;-82
2023/07/06 05:33:17;;;;;;;9.53;5.80;;;19.50;99.90;;;;;;5053841;28;20210;-80
2023/07/06 05:35:45;;;;;;;13.13;6.27;;;19.60;99.90;;;;;;5052430;28;20305;-82
2023/07/06 05:38:13;;;;;;;13.87;6.63;;;19.90;99.90;;;;;;5052732;28;20281;-82
2023/07/06 05:40:41;;;;;;;12.53;6.37;;;19.90;99.90;;;;;;5052273;28;20218;-82
2023/07/06 05:43:09;;;;;;;9.70;5.97;;;19.90;99.90;;;;;;5052998;28;20206;-81
2023/07/06 05:45:37;;;;;;;10.13;5.90;;;20.10;99.90;;;;;;5053462;28;20214;-80
2023/07/06 05:48:04;;;;;;;10.00;6.43;;;20.40;99.90;;;;;;5052054;28;20623;-80
2023/07/06 05:50:32;;;;;;;11.30;5.80;;;20.40;99.90;;;;;;5035591;28;20292;-81
2023/07/06 05:53:00;;;;;;;9.97;5.67;;;20.50;99.90;;;;;;5035744;28;20198;-80
2023/07/06 05:55:29;;;;;;;10.97;6.30;;;20.50;99.90;;;;;;5052286;28;20250;-81
2023/07/06 05:57:56;;;;;;;9.50;6.40;;;20.50;99.90;;;;;;5052092;28;20202;-82
2023/07/06 06:00:25;;;;;;;13.87;6.60;;;20.60;99.90;;;;;;5052062;28;20306;-80
2023/07/06 06:02:52;;;;;;;13.63;6.93;;;20.60;99.90;;;;;;5051908;28;20686;-82
2023/07/06 06:05:19;;;;;;;11.57;6.77;;;20.60;99.90;;;;;;5051911;28;20218;-81
2023/07/06 06:07:46;;;;;;;12.03;6.80;;;20.70;99.90;;;;;;5053133;28;20230;-81
2023/07/06 06:10:13;;;;;;;15.30;7.23;;;20.80;99.90;;;;;;5051993;28;20559;-81
2023/07/06 06:12:42;;;;;;;13.63;7.03;;;20.80;99.90;;;;;;5052112;28;21073;-80
2023/07/06 06:15:10;;;;;;;12.40;7.30;;;20.90;99.90;;;;;;5035188;28;20322;-80
2023/07/06 06:17:37;;;;;;;13.33;7.57;;;21.10;99.90;;;;;;5035543;28;20706;-80
2023/07/06 06:20:08;;;;;;;11.90;6.70;;;20.90;99.90;;;;;;5051588;28;20195;-81
2023/07/06 06:22:36;;;;;;;13.17;6.90;;;20.90;99.90;;;;;;5051877;28;20210;-80
2023/07/06 06:25:04;;;;;;;11.97;7.27;;;21.10;99.90;;;;;;5051676;28;20553;-81
2023/07/06 06:27:30;;;;;;;15.27;7.80;;;21.20;99.90;;;;;;5035221;28;20203;-80
2023/07/06 06:29:58;;;;;;;12.57;7.90;;;21.40;99.90;;;;;;5051849;28;20195;-80
2023/07/06 06:32:25;;;;;;;12.53;6.97;;;21.40;99.90;;;;;;5053025;28;20191;-79
2023/07/06 06:34:52;;;;;;;12.37;7.87;;;21.30;99.90;;;;;;5052588;28;20273;-79
2023/07/06 06:37:19;;;;;;;12.00;7.80;;;21.20;99.90;;;;;;5051556;28;20218;-79
2023/07/06 06:39:46;;;;;;;11.70;8.27;;;21.40;99.90;;;;;;5051300;28;20659;-80
2023/07/06 06:42:18;;;;;;;16.13;7.40;;;21.50;99.90;;;;;;5052570;28;20253;-80
2023/07/06 06:44:46;;;;;;;10.47;7.97;;;21.50;99.90;;;;;;5051404;28;20191;-83
2023/07/06 06:47:13;;;;;;;12.43;8.50;;;21.80;99.90;;;;;;5050874;28;20238;-79
2023/07/06 06:49:42;;;;;;;11.90;8.07;;;21.80;99.90;;;;;;5050887;28;20686;-81
2023/07/06 06:52:10;;;;;;;10.70;7.43;;;22.00;99.90;;;;;;5034494;28;20215;-74
2023/07/06 06:54:37;;;;;;;15.33;8.43;;;21.80;99.90;;;;;;5052577;28;20531;-80
2023/07/06 06:57:04;;;;;;;15.83;8.57;;;21.60;99.90;;;;;;5051057;28;20226;-77
2023/07/06 06:59:32;;;;;;;13.80;8.97;;;21.80;99.90;;;;;;5034610;28;20667;-80
2023/07/06 07:02:01;;;;;;;13.63;8.40;;;21.90;99.90;;;;;;5050820;28;20219;-79
2023/07/06 07:04:31;;;;;;;12.17;8.23;;;22.00;99.90;;;;;;5050784;28;20655;-79
2023/07/06 07:06:58;;;;;;;14.05;7.75;;;22.10;99.90;;;;;;5051034;28;20686;-77
2023/07/06 07:09:25;;;;;;;12.18;7.82;;;22.30;99.90;;;;;;5051151;28;20604;-79
2023/07/06 07:11:52;;;;;;;9.93;6.70;;;22.40;99.90;;;;;;5051376;28;20229;-79
2023/07/06 07:14:22;;;;;;;13.80;6.65;;;22.60;99.90;;;;;;5050943;28;20697;-80
2023/07/06 07:16:50;;;;;;;12.80;6.90;;;22.70;99.90;;;;;;5034219;28;20234;-79
2023/07/06 07:19:19;;;;;;;9.65;7.05;;;22.80;99.90;;;;;;5050829;28;20191;-78
2023/07/06 07:21:47;;;;;;;10.40;7.22;;;22.90;99.90;;;;;;5052025;28;20213;-80
2023/07/06 07:24:14;;;;;;;11.38;7.43;;;22.20;99.90;;;;;;5050871;28;20205;-81
2023/07/06 07:26:41;;;;;;;8.90;6.27;;;22.30;99.90;;;;;;5051060;28;20219;-80
2023/07/06 07:29:08;;;;;;;12.00;6.80;;;22.60;99.90;;;;;;5050788;28;20205;-81
2023/07/06 07:31:35;;;;;;;9.60;6.27;;;22.90;99.90;;;;;;5034457;28;20215;-80
2023/07/06 07:34:02;;;;;;;10.60;6.40;;;23.10;99.90;;;;;;5053963;28;20201;-80
2023/07/06 07:36:29;;;;;;;10.63;6.00;;;23.10;99.90;;;;;;5054622;28;20222;-82
2023/07/06 07:38:57;;;;;;;8.63;5.55;;;23.10;99.90;;;;;;5056175;28;20187;-88
2023/07/06 07:41:25;;;;;;;11.77;5.90;;;22.80;99.90;;;;;;5054808;28;20710;-91
2023/07/06 07:43:52;;;;;;;11.23;5.70;;;23.00;99.90;;;;;;5054918;28;20562;-83
2023/07/06 07:46:20;;;;;;;9.93;5.30;;;23.00;99.90;;;;;;5054490;28;20229;-82
2023/07/06 07:48:49;;;;;;;9.27;5.40;;;23.20;99.90;;;;;;5055756;28;20246;-82
2023/07/06 07:51:21;;;;;;;9.20;5.30;;;23.30;99.90;;;;;;5055788;28;20225;-85
2023/07/06 07:53:49;;;;;;;8.90;5.00;;;23.30;99.90;;;;;;5055877;28;20672;-83
2023/07/06 07:56:16;;;;;;;8.85;4.60;;;23.40;99.90;;;;;;5054339;28;20220;-81
2023/07/06 07:58:48;;;;;;;7.07;4.60;;;23.40;99.90;;;;;;5037955;28;20198;-83
2023/07/06 08:01:20;;;;;;;7.27;4.50;;;23.20;99.90;;;;;;5037895;28;20219;-81
2023/07/06 08:03:48;;;;;;;6.45;4.43;;;23.20;99.90;;;;;;5054676;28;20226;-81
2023/07/06 08:06:18;;;;;;;6.55;4.20;;;23.20;99.90;;;;;;5055398;28;20206;-80
2023/07/06 08:08:47;;;;;;;7.38;4.40;;;23.30;99.90;;;;;;5054325;28;20217;-80
2023/07/06 08:11:20;;;;;;;9.37;4.43;;;23.30;99.90;;;;;;5037820;28;20238;-81
2023/07/06 08:13:50;;;;;;;7.78;4.13;;;23.30;99.90;;;;;;5037946;28;20281;-81
2023/07/06 08:16:19;;;;;;;6.75;4.13;;;23.50;99.90;;;;;;5055199;28;20215;-82
2023/07/06 08:18:51;;;;;;;6.20;3.97;;;23.60;99.90;;;;;;5054217;28;20194;-80
2023/07/06 08:21:38;;;;;;;6.88;4.45;;;23.70;99.90;;;;;;5039962;28;20270;-79
2023/07/06 08:24:25;;;;;;;7.13;4.60;;;23.80;99.90;;;;;;5054662;28;20209;-79
2023/07/06 08:26:52;;;;;;;7.78;4.57;;;24.00;99.90;;;;;;5053585;28;20223;-81
2023/07/06 08:29:19;;;;;;;9.55;4.38;;;24.30;99.90;;;;;;5037399;28;20202;-82
2023/07/06 08:31:47;;;;;;;7.43;4.00;;;25.00;99.90;;;;;;5054997;28;20210;-81
2023/07/06 08:34:16;;;;;;;6.65;4.20;;;25.60;99.90;;;;;;5037407;28;20201;-81
2023/07/06 08:36:44;;;;;;;10.25;4.45;;;26.00;99.90;;;;;;5053718;28;20266;-85
2023/07/06 08:39:11;;;;;;;6.30;3.70;;;26.50;99.90;;;;;;5037266;28;20195;-84
2023/07/06 08:41:44;;;;;;;6.80;3.83;;;26.20;99.90;;;;;;5055267;28;20261;-81
2023/07/06 08:44:14;;;;;;;8.23;3.53;;;26.40;99.90;;;;;;5055924;28;20539;-90
2023/07/06 08:46:47;;;;;;;6.15;3.55;;;26.50;99.90;;;;;;5052798;28;20674;-80
2023/07/06 08:49:28;;;;;;;6.75;3.50;;;26.90;99.90;;;;;;5055037;28;20179;-88
2023/07/06 08:52:05;;;;;;;9.20;3.17;;;27.10;99.90;;;;;;5053574;28;20802;-79
2023/07/06 08:54:39;;;;;;;6.07;3.90;;;27.10;99.90;;;;;;5054750;28;20266;-83
2023/07/06 08:57:17;;;;;;;19.17;4.15;;;26.90;99.90;;;;;;5053233;28;20218;-84
2023/07/06 08:59:48;;;;;;;6.13;3.63;;;27.10;99.90;;;;;;5053714;28;20195;-84
2023/07/06 09:02:18;;;;;;;5.97;3.53;;;28.00;99.90;;;;;;5037249;28;20242;-83
2023/07/06 09:04:47;;;;;;;8.25;3.85;;;27.90;99.90;;;;;;5053214;28;20199;-83
2023/07/06 09:07:19;;;;;;;5.60;3.97;;;27.30;99.90;;;;;;5053213;28;20219;-84
2023/07/06 09:09:48;;;;;;;9.65;3.80;;;27.00;99.90;;;;;;5054666;28;20651;-82
2023/07/06 09:12:25;;;;;;;8.05;3.83;;;26.90;99.90;;;;;;5053103;28;20229;-81
2023/07/06 09:14:53;;;;;;;8.13;3.83;;;26.80;99.90;;;;;;5036867;28;20214;-79
2023/07/06 09:17:20;;;;;;;11.05;4.05;;;26.50;99.90;;;;;;5052809;28;20313;-81
2023/07/06 09:19:49;;;;;;;5.78;3.58;;;26.90;99.90;;;;;;5052723;28;20237;-80
2023/07/06 09:22:18;;;;;;;6.97;3.60;;;27.50;99.90;;;;;;5054290;28;20219;-83
2023/07/06 09:24:45;;;;;;;7.68;3.75;;;27.80;99.90;;;;;;5052851;28;20221;-85
2023/07/06 09:27:23;;;;;;;6.72;3.20;;;27.90;99.90;;;;;;5052630;28;20226;-83
2023/07/06 09:30:07;;;;;;;5.72;3.40;;;28.20;99.90;;;;;;5052768;28;20647;-82
2023/07/06 09:32:34;;;;;;;5.20;2.90;;;28.40;99.90;;;;;;5053169;28;20198;-82
2023/07/06 09:35:04;;;;;;;6.35;3.42;;;28.30;98.40;;;;;;5052978;28;20285;-81
2023/07/06 09:37:31;;;;;;;7.25;3.40;;;28.00;99.90;;;;;;5052656;28;20223;-86
2023/07/06 09:40:00;;;;;;;4.55;3.10;;;28.20;99.90;;;;;;5054017;28;20194;-81
2023/07/06 09:42:31;;;;;;;7.78;3.17;;;28.10;97.00;;;;;;5052655;28;20191;-83
2023/07/06 09:45:00;;;;;;;7.72;3.08;;;27.40;98.80;;;;;;5035832;28;20199;-81
2023/07/06 09:47:29;;;;;;;7.55;3.20;;;27.90;99.70;;;;;;5052141;28;20233;-79
2023/07/06 09:50:04;;;;;;;6.47;3.05;;;27.80;97.60;;;;;;5054213;28;20190;-84
2023/07/06 09:52:37;;;;;;;7.32;2.90;;;28.10;98.10;;;;;;5035901;28;20213;-83
2023/07/06 09:55:23;;;;;;;5.05;2.90;;;28.40;97.10;;;;;;5053578;28;20627;-81
2023/07/06 09:57:51;;;;;;;7.57;3.08;;;28.60;96.50;;;;;;5052940;28;20674;-77
2023/07/06 10:00:22;;;;;;;5.60;2.90;;;28.50;95.70;;;;;;5053602;28;20244;-81
2023/07/06 10:03:21;;;;;;;8.73;3.58;;;28.40;96.40;;;;;;5052175;28;20238;-80
2023/07/06 10:06:22;;;;;;;4.93;2.97;;;27.20;94.70;;;;;;5052192;28;20221;-79
2023/07/06 10:09:05;;;;;;;9.55;3.45;;;26.40;96.30;;;;;;5035606;28;20623;-76
2023/07/06 10:11:47;;;;;;;6.10;3.42;;;26.90;96.40;;;;;;5052164;28;20221;-80
2023/07/06 10:14:25;;;;;;;7.20;3.55;;;27.00;96.20;;;;;;5035412;28;20199;-81
2023/07/06 10:17:15;;;;;;;5.97;3.22;;;27.20;95.70;;;;;;5051714;28;20643;-78
2023/07/06 10:20:05;;;;;;;11.57;3.55;;;27.70;95.00;;;;;;5053081;28;20183;-79
2023/07/06 10:22:50;;;;;;;6.80;3.30;;;28.00;94.10;;;;;;5035602;28;20635;-84
2023/07/06 10:25:35;;;;;;;5.40;3.35;;;28.60;94.20;;;;;;5051598;28;20215;-83
2023/07/06 10:28:43;;;;;;;6.68;3.08;;;28.90;93.60;;;;;;5051878;28;20190;-82
2023/07/06 10:31:16;;;;;;;4.85;2.90;;;29.60;91.40;;;;;;5051814;28;20214;-80
2023/07/06 10:33:58;;;;;;;7.75;3.00;;;29.40;90.60;;;;;;5052790;28;20226;-78
2023/07/06 10:36:32;;;;;;;5.75;3.00;;;29.30;90.20;;;;;;5036015;28;20227;-84
2023/07/06 10:39:03;;;;;;;9.30;3.40;;;29.20;88.10;;;;;;5052152;28;20185;-80
2023/07/06 10:41:34;;;;;;;6.93;2.80;;;29.00;89.80;;;;;;5053378;28;20221;-80
2023/07/06 10:44:44;;;;;;;5.20;2.90;;;29.00;89.00;;;;;;5051634;28;20577;-80
2023/07/06 10:47:33;;;;;;;4.97;2.85;;;28.90;89.40;;;;;;5051867;28;20703;-77
2023/07/06 10:50:28;;;;;;;6.25;3.10;;;29.20;86.60;;;;;;5035322;28;20194;-78
2023/07/06 10:53:17;;;;;;;7.60;3.00;;;28.60;87.20;;;;;;5051864;28;20187;-80
2023/07/06 10:55:58;;;;;;;6.88;2.90;;;28.90;85.10;;;;;;5054098;28;20260;-83
2023/07/06 10:58:30;;;;;;;10.38;3.38;;;28.90;84.50;;;;;;5051615;28;20241;-82
2023/07/06 11:01:03;;;;;;;7.68;3.20;;;28.70;84.00;;;;;;5035112;28;20215;-81
2023/07/06 11:03:31;;;;;;;7.13;3.00;;;28.90;84.60;;;;;;5052210;28;20195;-82
2023/07/06 11:06:11;;;;;;;7.85;3.40;;;29.10;81.40;;;;;;5018922;28;20254;-80
2023/07/06 11:08:56;;;;;;;5.00;2.83;;;29.60;81.40;;;;;;5034440;28;20182;-78
2023/07/06 11:11:27;;;;;;;4.95;2.60;;;30.40;81.40;;;;;;5052582;28;20221;-79
2023/07/06 11:13:54;;;;;;;5.70;2.75;;;29.70;79.00;;;;;;5052798;28;20185;-81
2023/07/06 11:17:02;;;;;;;8.73;3.05;;;29.40;79.60;;;;;;5051361;28;20226;-81
2023/07/06 11:19:41;;;;;;;5.80;2.80;;;29.30;80.50;;;;;;5051107;28;20183;-80
2023/07/06 11:22:16;;;;;;;4.15;2.67;;;29.10;74.60;;;;;;5034637;28;20272;-82
2023/07/06 11:24:55;;;;;;;4.72;2.75;;;29.50;75.00;;;;;;5051914;28;20198;-82
2023/07/06 11:27:30;;;;;;;6.22;2.75;;;29.40;76.40;;;;;;5051320;28;20316;-83
2023/07/06 11:30:02;;;;;;;14.60;3.03;;;29.80;74.70;;;;;;5051694;28;20214;-82
2023/07/06 11:32:55;;;;;;;10.48;2.83;;;29.60;73.60;;;;;;5035297;28;20285;-81
2023/07/06 11:35:26;;;;;;;6.72;2.70;;;29.70;73.30;;;;;;5052550;28;20207;-81
2023/07/06 11:38:15;;;;;;;5.10;2.40;;;29.60;74.00;;;;;;5052579;28;20641;-80
2023/07/06 11:41:05;;;;;;;4.65;2.47;;;29.90;74.00;;;;;;5050720;28;20226;-81
2023/07/06 11:44:10;;;;;;;4.85;2.40;;;30.30;73.30;;;;;;5052048;28;20183;-85
2023/07/06 11:47:03;;;;;;;5.97;2.50;;;30.40;71.70;;;;;;5052549;28;20727;-86
2023/07/06 11:49:46;;;;;;;6.38;3.08;;;29.80;72.70;;;;;;5052104;28;20249;-85
2023/07/06 11:52:19;;;;;;;4.80;2.42;;;29.00;72.80;;;;;;5051551;28;20229;-79
2023/07/06 11:55:05;;;;;;;4.88;2.63;;;28.60;74.70;;;;;;5051912;28;20175;-77
2023/07/06 11:57:44;;;;;;;4.68;2.70;;;28.40;74.20;;;;;;5050710;28;20322;-79
2023/07/06 12:02:58;;;;;;;5.90;2.53;;;28.30;76.00;;;;;;5052052;28;20585;-78
2023/07/06 12:05:26;;;;;;;5.95;2.83;;;27.90;75.70;;;;;;5051671;28;20214;-81
2023/07/06 12:07:58;;;;;;;4.93;2.50;;;27.60;77.80;;;;;;5050309;28;20203;-82
2023/07/06 12:10:29;;;;;;;5.20;2.63;;;27.70;77.30;;;;;;5050403;28;20694;-81
2023/07/06 12:12:56;;;;;;;3.25;2.42;;;27.30;76.50;;;;;;5051862;28;20445;-86
2023/07/06 12:15:24;;;;;;;4.60;2.70;;;26.60;79.20;;;;;;5034497;28;20246;-85
2023/07/06 12:17:57;;;;;;;4.72;2.80;;;26.80;77.20;;;;;;5035663;28;20225;-82
2023/07/06 12:20:27;;;;;;;3.92;2.55;;;26.60;78.10;;;;;;5057074;28;20260;-88
2023/07/06 12:22:59;;;;;;;4.72;2.92;;;26.20;77.90;;;;;;5054329;28;20202;-83
2023/07/06 12:25:30;;;;;;;6.90;2.90;;;26.20;78.90;;;;;;5054325;28;20218;-85
2023/07/06 12:28:00;;;;;;;13.40;2.63;;;26.50;79.20;;;;;;5038233;28;20242;-80
2023/07/06 12:30:33;;;;;;;8.88;2.90;;;26.50;78.60;;;;;;5038221;28;20285;-80
2023/07/06 12:33:04;;;;;;;6.72;3.10;;;26.30;83.30;;;;;;5038547;28;20195;-80
2023/07/06 12:35:33;;;;;;;6.80;2.90;;;26.00;83.50;;;;;;5037984;28;20250;-79
2023/07/06 12:38:09;;;;;;;4.90;2.70;;;25.70;83.80;;;;;;5054432;28;20219;-79
2023/07/06 12:40:38;;;;;;;8.43;2.50;;;25.50;85.90;;;;;;5056185;28;20221;-78
2023/07/06 12:43:07;;;;;;;5.57;2.63;;;25.40;82.30;;;;;;5054313;28;20226;-79
2023/07/06 12:45:34;;;;;;;5.10;2.30;;;25.10;82.50;;;;;;5055135;28;20710;-78
2023/07/06 12:48:05;;;;;;;5.78;2.45;;;25.10;85.20;;;;;;5053994;28;20318;-80
2023/07/06 12:50:39;;;;;;;4.80;2.55;;;25.10;84.30;;;;;;5054967;28;20317;-79
2023/07/06 12:53:13;;;;;;;7.40;3.00;;;25.30;85.30;;;;;;5054060;28;20210;-83
2023/07/06 12:55:41;;;;;;;6.32;2.80;;;25.40;83.00;;;;;;5054626;28;20206;-82
2023/07/06 12:58:27;;;;;;;9.27;2.60;;;25.50;82.40;;;;;;5037196;28;20218;-81
2023/07/06 13:01:20;;;;;;;4.05;2.30;;;25.40;83.40;;;;;;5054087;28;20214;-81
2023/07/06 13:03:52;;;;;;;5.05;2.65;;;25.40;82.80;;;;;;5054217;28;20187;-81
2023/07/06 13:06:21;;;;;;;9.13;2.75;;;25.50;82.30;;;;;;5053938;28;20226;-80
2023/07/06 13:08:48;;;;;;;4.63;2.20;;;25.60;82.70;;;;;;5054094;28;20210;-83
2023/07/06 13:11:16;;;;;;;8.38;2.28;;;25.90;79.80;;;;;;5054733;28;20211;-79
2023/07/06 13:13:48;;;;;;;6.95;2.70;;;25.90;79.10;;;;;;5054862;28;20556;-81